createdAt,value
2023-03-06T00:00:56.945Z,15.90
2023-03-06T00:03:50.376Z,17.00
2023-03-06T00:06:17.455Z,18.50
2023-03-06T00:08:44.374Z,18.30
2023-03-06T00:11:15.431Z,14.50
2023-03-06T00:13:42.575Z,17.30
2023-03-06T00:16:09.621Z,20.10
2023-03-06T00:18:37.841Z,23.30
2023-03-06T00:21:08.068Z,18.70
2023-03-06T00:23:37.128Z,19.30
2023-03-06T00:26:08.774Z,19.00
2023-03-06T00:28:37.120Z,16.20
2023-03-06T00:31:04.362Z,15.60
2023-03-06T00:33:32.146Z,14.90
2023-03-06T00:35:59.146Z,16.00
2023-03-06T00:38:28.840Z,19.50
2023-03-06T00:40:56.049Z,19.50
2023-03-06T00:43:23.059Z,18.90
2023-03-06T00:45:50.355Z,274.00
2023-03-06T00:48:18.041Z,112.10
2023-03-06T00:50:45.031Z,33.30
2023-03-06T00:53:13.738Z,35.20
2023-03-06T00:55:44.561Z,32.30
2023-03-06T00:58:12.132Z,33.40
2023-03-06T01:00:39.928Z,40.90
2023-03-06T01:03:07.065Z,23.60
2023-03-06T01:05:37.556Z,29.90
2023-03-06T01:08:06.606Z,27.30
2023-03-06T01:10:35.225Z,25.80
2023-03-06T01:13:02.242Z,23.80
2023-03-06T01:15:29.394Z,18.90
2023-03-06T01:18:00.021Z,17.70
2023-03-06T01:20:27.594Z,15.60
2023-03-06T01:22:57.001Z,16.80
2023-03-06T01:25:25.898Z,19.40
2023-03-06T01:27:53.409Z,15.40
2023-03-06T01:30:21.599Z,18.40
2023-03-06T01:32:49.850Z,17.30
2023-03-06T01:35:56.922Z,14.00
2023-03-06T01:38:54.176Z,15.50
2023-03-06T01:42:01.312Z,16.10
2023-03-06T01:45:07.440Z,15.10
2023-03-06T01:47:34.679Z,13.40
2023-03-06T01:50:04.603Z,16.40
2023-03-06T01:52:36.876Z,14.10
2023-03-06T01:55:20.935Z,14.00
2023-03-06T01:57:55.778Z,18.10
2023-03-06T02:03:16.325Z,13.60
2023-03-06T02:05:45.539Z,12.10
2023-03-06T02:08:16.569Z,12.00
2023-03-06T02:10:56.416Z,11.00
2023-03-06T02:13:23.805Z,14.20
2023-03-06T02:15:51.365Z,15.50
2023-03-06T02:18:18.879Z,12.50
2023-03-06T02:21:00.597Z,13.60
2023-03-06T02:23:54.417Z,17.80
2023-03-06T02:26:22.289Z,14.90
2023-03-06T02:28:49.377Z,15.30
2023-03-06T02:31:27.232Z,13.50
2023-03-06T02:34:20.762Z,13.10
2023-03-06T02:36:56.648Z,17.00
2023-03-06T02:39:26.852Z,15.70
2023-03-06T02:41:54.483Z,19.40
2023-03-06T02:44:23.672Z,15.10
2023-03-06T02:46:50.690Z,15.10
2023-03-06T02:49:18.548Z,18.90
2023-03-06T02:51:46.195Z,17.30
2023-03-06T02:54:13.277Z,16.70
2023-03-06T02:56:40.449Z,19.10
2023-03-06T02:59:07.617Z,17.50
2023-03-06T03:01:34.814Z,18.20
2023-03-06T03:04:02.183Z,20.00
2023-03-06T03:06:29.648Z,16.00
2023-03-06T03:08:56.798Z,21.30
2023-03-06T03:11:23.968Z,20.70
2023-03-06T03:13:51.559Z,20.50
2023-03-06T03:16:18.823Z,16.50
2023-03-06T03:18:48.202Z,22.90
2023-03-06T03:21:15.565Z,22.80
2023-03-06T03:23:42.667Z,20.50
2023-03-06T03:26:19.485Z,25.30
2023-03-06T03:28:46.477Z,22.40
2023-03-06T03:31:14.119Z,23.60
2023-03-06T03:33:41.527Z,23.30
2023-03-06T03:36:09.359Z,25.30
2023-03-06T03:38:36.750Z,27.20
2023-03-06T03:41:05.106Z,30.80
2023-03-06T03:43:32.786Z,30.90
2023-03-06T03:46:00.695Z,27.00
2023-03-06T03:48:28.747Z,29.50
2023-03-06T03:50:55.898Z,25.00
2023-03-06T03:53:23.251Z,28.90
2023-03-06T03:55:50.581Z,28.80
2023-03-06T03:58:17.577Z,32.20
2023-03-06T04:00:45.183Z,36.90
2023-03-06T04:03:15.203Z,34.60
2023-03-06T04:05:42.499Z,32.10
2023-03-06T04:08:09.576Z,39.30
2023-03-06T04:10:39.006Z,38.80
2023-03-06T04:13:08.826Z,36.80
2023-03-06T04:15:37.252Z,32.00
2023-03-06T04:18:04.691Z,35.20
2023-03-06T04:20:31.589Z,31.80
2023-03-06T04:22:58.995Z,35.90
2023-03-06T04:25:26.148Z,38.00
2023-03-06T04:27:53.218Z,35.70
2023-03-06T04:30:20.516Z,33.90
2023-03-06T04:32:47.513Z,37.00
2023-03-06T04:35:14.459Z,38.10
2023-03-06T04:37:41.946Z,37.40
2023-03-06T04:40:18.473Z,32.50
2023-03-06T04:42:46.235Z,43.30
2023-03-06T04:45:13.877Z,44.00
2023-03-06T04:47:41.123Z,46.20
2023-03-06T04:50:09.344Z,49.30
2023-03-06T04:52:36.538Z,49.70
2023-03-06T04:55:09.031Z,48.00
2023-03-06T04:57:36.998Z,44.00
2023-03-06T05:00:12.631Z,46.40
2023-03-06T05:02:40.239Z,52.90
2023-03-06T05:05:07.792Z,61.30
2023-03-06T05:07:36.419Z,62.60
2023-03-06T05:10:04.861Z,61.70
2023-03-06T05:12:32.268Z,60.30
2023-03-06T05:14:59.500Z,58.70
2023-03-06T05:17:29.348Z,50.80
2023-03-06T05:19:56.529Z,52.70
2023-03-06T05:22:24.567Z,61.10
2023-03-06T05:24:52.217Z,54.00
2023-03-06T05:27:19.579Z,72.80
2023-03-06T05:29:47.243Z,69.30
2023-03-06T05:32:18.842Z,61.10
2023-03-06T05:34:46.045Z,64.40
2023-03-06T05:37:15.845Z,70.00
2023-03-06T05:39:44.151Z,72.90
2023-03-06T05:42:11.212Z,66.70
2023-03-06T05:44:38.786Z,55.00
2023-03-06T05:47:08.337Z,76.80
2023-03-06T05:49:37.149Z,74.60
2023-03-06T05:52:06.060Z,75.90
2023-03-06T05:54:36.787Z,75.40
2023-03-06T05:57:06.381Z,74.60
2023-03-06T05:59:34.096Z,66.40
2023-03-06T06:02:01.688Z,59.50
2023-03-06T06:04:31.637Z,61.70
2023-03-06T06:07:01.166Z,65.90
2023-03-06T06:09:29.207Z,67.10
2023-03-06T06:12:00.491Z,71.60
2023-03-06T06:14:35.555Z,65.60
2023-03-06T06:17:03.081Z,62.60
2023-03-06T06:19:31.317Z,56.50
2023-03-06T06:21:59.168Z,64.00
2023-03-06T06:24:27.279Z,53.50
2023-03-06T06:26:56.693Z,56.00
2023-03-06T06:29:26.176Z,55.80
2023-03-06T06:31:54.069Z,55.10
2023-03-06T06:34:22.792Z,54.40
2023-03-06T06:36:53.593Z,53.40
2023-03-06T06:39:23.984Z,54.90
2023-03-06T06:42:05.899Z,44.70
2023-03-06T06:44:40.386Z,50.60
2023-03-06T06:47:25.047Z,50.30
2023-03-06T06:49:55.099Z,49.70
2023-03-06T06:52:23.387Z,44.40
2023-03-06T06:54:50.822Z,52.30
2023-03-06T06:57:19.018Z,42.10
2023-03-06T06:59:46.321Z,53.30
2023-03-06T07:02:14.901Z,48.80
2023-03-06T07:05:00.302Z,41.90
2023-03-06T07:07:30.435Z,43.20
2023-03-06T07:09:58.336Z,42.80
2023-03-06T07:12:25.687Z,44.90
2023-03-06T07:14:56.509Z,40.50
2023-03-06T07:17:24.491Z,41.10
2023-03-06T07:19:51.713Z,46.40
2023-03-06T07:22:19.699Z,41.10
2023-03-06T07:24:47.633Z,47.10
2023-03-06T07:27:16.109Z,46.90
2023-03-06T07:30:20.078Z,48.70
2023-03-06T07:33:24.854Z,52.90
2023-03-06T07:36:14.101Z,48.40
2023-03-06T07:38:41.428Z,45.30
2023-03-06T07:41:13.826Z,39.40
2023-03-06T07:43:42.451Z,44.80
2023-03-06T07:46:11.511Z,48.60
2023-03-06T07:48:39.007Z,56.00
2023-03-06T07:51:13.796Z,57.50
2023-03-06T07:53:45.292Z,53.50
2023-03-06T07:56:35.617Z,49.80
2023-03-06T07:59:13.681Z,45.70
2023-03-06T08:01:41.145Z,31.90
2023-03-06T08:04:15.291Z,47.30
2023-03-06T08:06:42.813Z,51.30
2023-03-06T08:09:09.945Z,42.00
2023-03-06T08:11:36.845Z,39.40
2023-03-06T08:14:04.407Z,42.20
2023-03-06T08:16:31.754Z,44.20
2023-03-06T08:18:59.002Z,41.60
2023-03-06T08:21:29.463Z,34.70
2023-03-06T08:23:56.923Z,39.00
2023-03-06T08:26:27.894Z,36.60
2023-03-06T08:28:57.405Z,28.60
2023-03-06T08:31:32.769Z,33.40
2023-03-06T08:34:03.535Z,32.80
2023-03-06T08:36:30.981Z,28.40
2023-03-06T08:38:58.841Z,27.80
2023-03-06T08:41:26.885Z,33.30
2023-03-06T08:43:54.229Z,34.30
2023-03-06T08:46:24.271Z,37.60
2023-03-06T08:48:52.321Z,34.60
2023-03-06T08:51:20.508Z,38.10
2023-03-06T08:53:48.217Z,28.00
2023-03-06T08:56:24.880Z,35.40
2023-03-06T08:58:52.109Z,32.30
2023-03-06T09:01:28.619Z,35.60
2023-03-06T09:03:58.694Z,35.20
2023-03-06T09:06:27.985Z,29.40
2023-03-06T09:08:56.054Z,32.30
2023-03-06T09:11:24.977Z,30.10
2023-03-06T09:13:53.060Z,29.10
2023-03-06T09:16:22.996Z,28.60
2023-03-06T09:18:53.344Z,30.60
2023-03-06T09:21:22.045Z,29.40
2023-03-06T09:23:51.450Z,25.90
2023-03-06T09:26:19.207Z,28.10
2023-03-06T09:28:47.112Z,25.50
2023-03-06T09:31:20.276Z,25.60
2023-03-06T09:33:59.074Z,26.70
2023-03-06T09:36:26.733Z,25.00
2023-03-06T09:38:53.852Z,20.80
2023-03-06T09:41:43.457Z,23.70
2023-03-06T09:44:21.344Z,20.80
2023-03-06T09:47:11.642Z,22.70
2023-03-06T09:49:47.833Z,23.50
2023-03-06T09:52:18.436Z,22.70
2023-03-06T09:54:55.591Z,17.90
2023-03-06T09:57:44.144Z,17.80
2023-03-06T10:00:29.767Z,11.80
2023-03-06T10:03:25.872Z,10.50
2023-03-06T10:06:00.947Z,10.40
2023-03-06T10:08:39.317Z,8.60
2023-03-06T10:11:10.945Z,10.20
2023-03-06T10:13:46.759Z,12.80
2023-03-06T10:16:31.133Z,11.70
2023-03-06T10:19:11.119Z,9.30
2023-03-06T10:21:53.770Z,8.50
2023-03-06T10:24:39.823Z,8.90
2023-03-06T10:27:18.981Z,8.50
2023-03-06T10:30:02.545Z,7.90
2023-03-06T10:32:48.746Z,7.90
2023-03-06T10:35:31.340Z,7.80
2023-03-06T10:38:13.737Z,8.30
2023-03-06T10:41:09.790Z,8.10
2023-03-06T10:44:03.512Z,8.70
2023-03-06T10:46:43.800Z,8.00
2023-03-06T10:49:25.209Z,7.40
2023-03-06T10:52:06.729Z,6.30
2023-03-06T10:54:40.097Z,7.30
2023-03-06T10:57:26.413Z,7.40
2023-03-06T11:00:23.464Z,6.90
2023-03-06T11:03:07.662Z,7.80
2023-03-06T11:05:35.845Z,7.30
2023-03-06T11:08:04.179Z,7.20
2023-03-06T11:10:40.317Z,6.40
2023-03-06T11:13:23.578Z,5.60
2023-03-06T11:16:04.470Z,7.10
2023-03-06T11:18:39.862Z,7.50
2023-03-06T11:21:27.981Z,7.20
2023-03-06T11:24:03.022Z,7.30
2023-03-06T11:26:42.167Z,6.70
2023-03-06T11:29:54.874Z,7.10
2023-03-06T11:32:25.566Z,6.30
2023-03-06T11:34:56.729Z,6.80
2023-03-06T11:37:35.005Z,6.40
2023-03-06T11:40:12.487Z,8.00
2023-03-06T11:43:58.549Z,6.10
2023-03-06T11:47:10.916Z,6.50
2023-03-06T11:50:19.019Z,7.40
2023-03-06T11:52:57.730Z,5.20
2023-03-06T11:56:21.216Z,6.50
2023-03-06T11:59:23.726Z,4.50
2023-03-06T12:02:28.946Z,5.50
2023-03-06T12:05:34.243Z,6.40
2023-03-06T12:08:42.083Z,5.60
2023-03-06T12:14:34.203Z,5.80
2023-03-06T12:17:07.699Z,5.30
2023-03-06T12:19:59.989Z,6.20
2023-03-06T12:22:58.013Z,6.70
2023-03-06T12:25:52.051Z,6.60
2023-03-06T12:28:57.191Z,7.30
2023-03-06T12:31:33.171Z,5.80
2023-03-06T12:34:19.624Z,8.10
2023-03-06T12:37:13.440Z,5.10
2023-03-06T12:39:50.072Z,5.10
2023-03-06T12:42:45.540Z,4.50
2023-03-06T12:45:35.683Z,7.80
2023-03-06T12:48:17.705Z,5.00
2023-03-06T12:50:46.402Z,7.20
2023-03-06T12:53:28.210Z,4.60
2023-03-06T12:56:05.476Z,5.10
2023-03-06T12:58:57.929Z,5.60
2023-03-06T13:01:49.794Z,5.40
2023-03-06T13:04:46.169Z,5.10
2023-03-06T13:07:44.219Z,6.70
2023-03-06T13:10:29.125Z,7.40
2023-03-06T13:13:05.577Z,5.80
2023-03-06T13:15:50.537Z,8.30
2023-03-06T13:18:23.736Z,6.80
2023-03-06T13:20:57.266Z,6.80
2023-03-06T13:23:33.321Z,9.00
2023-03-06T13:26:26.342Z,8.50
2023-03-06T13:28:58.192Z,8.10
2023-03-06T13:31:50.868Z,7.30
2023-03-06T13:34:38.991Z,7.40
2023-03-06T13:37:24.057Z,7.30
2023-03-06T13:40:00.347Z,7.10
2023-03-06T13:45:46.764Z,6.20
2023-03-06T13:49:29.025Z,7.20
2023-03-06T13:53:14.433Z,5.10
2023-03-06T13:56:56.872Z,4.20
2023-03-06T14:00:42.545Z,3.80
2023-03-06T14:04:41.426Z,7.60
2023-03-06T14:08:22.944Z,5.30
2023-03-06T14:12:06.731Z,7.40
2023-03-06T14:15:53.330Z,4.90
2023-03-06T14:19:00.662Z,4.80
2023-03-06T14:22:30.446Z,5.70
2023-03-06T14:25:34.894Z,4.50
2023-03-06T14:28:42.447Z,5.20
2023-03-06T14:31:58.087Z,4.80
2023-03-06T14:35:27.946Z,6.00
2023-03-06T14:38:55.971Z,4.70
2023-03-06T14:42:45.260Z,6.30
2023-03-06T14:46:22.799Z,7.60
2023-03-06T14:50:18.383Z,6.60
2023-03-06T14:54:05.356Z,7.40
2023-03-06T14:57:55.035Z,6.90
2023-03-06T15:04:52.344Z,7.50
2023-03-06T15:08:24.944Z,7.10
2023-03-06T15:12:10.358Z,9.90
2023-03-06T15:15:40.642Z,6.50
2023-03-06T15:19:42.809Z,8.50
2023-03-06T15:23:05.283Z,8.50
2023-03-06T15:27:02.210Z,10.10
2023-03-06T15:30:14.395Z,9.40
2023-03-06T15:33:30.763Z,10.00
2023-03-06T15:37:03.138Z,12.50
2023-03-06T15:40:28.861Z,8.70
2023-03-06T15:43:45.041Z,8.00
2023-03-06T15:47:16.142Z,6.80
2023-03-06T15:50:44.173Z,5.90
2023-03-06T15:54:12.880Z,8.10
2023-03-06T15:57:58.775Z,9.00
2023-03-06T16:01:45.509Z,10.50
2023-03-06T16:05:33.205Z,10.60
2023-03-06T16:09:18.580Z,12.30
2023-03-06T16:13:48.111Z,11.00
2023-03-06T16:17:15.121Z,13.60
2023-03-06T16:20:42.094Z,16.20
2023-03-06T16:24:14.795Z,17.40
2023-03-06T16:28:02.995Z,15.50
2023-03-06T16:31:49.666Z,17.40
2023-03-06T16:35:00.575Z,13.90
2023-03-06T16:38:08.482Z,12.50
2023-03-06T16:41:56.919Z,12.80
2023-03-06T16:45:44.011Z,11.70
2023-03-06T16:49:31.588Z,13.30
2023-03-06T16:53:18.364Z,13.20
2023-03-06T16:57:05.682Z,13.50
2023-03-06T17:00:52.586Z,15.70
2023-03-06T17:04:38.564Z,13.10
2023-03-06T17:08:25.177Z,10.40
2023-03-06T17:11:56.012Z,12.60
2023-03-06T17:15:42.802Z,11.50
2023-03-06T17:19:29.663Z,16.30
2023-03-06T17:23:19.267Z,14.50
2023-03-06T17:27:06.929Z,11.30
2023-03-06T17:30:53.759Z,15.30
2023-03-06T17:34:40.870Z,18.30
2023-03-06T17:38:27.829Z,17.30
2023-03-06T17:41:09.806Z,17.50
2023-03-06T17:43:59.168Z,15.70
2023-03-06T17:46:52.003Z,15.20
2023-03-06T17:50:01.486Z,16.70
2023-03-06T17:53:15.528Z,17.30
2023-03-06T17:56:37.551Z,16.00
2023-03-06T17:59:07.774Z,21.30
2023-03-06T18:01:37.038Z,20.10
2023-03-06T18:04:06.514Z,22.90
2023-03-06T18:06:36.337Z,19.40
2023-03-06T18:09:08.686Z,19.80
2023-03-06T18:11:38.118Z,18.90
2023-03-06T18:14:06.642Z,24.30
2023-03-06T18:16:33.998Z,21.30
2023-03-06T18:19:03.002Z,26.90
2023-03-06T18:21:32.021Z,24.60
2023-03-06T18:24:00.548Z,25.60
2023-03-06T18:26:31.683Z,23.90
2023-03-06T18:29:06.590Z,23.90
2023-03-06T18:31:36.087Z,24.00
2023-03-06T18:34:17.444Z,24.30
2023-03-06T18:36:47.677Z,23.20
2023-03-06T18:39:15.332Z,27.70
2023-03-06T18:41:42.479Z,24.10
2023-03-06T18:44:09.647Z,24.50
2023-03-06T18:46:39.633Z,31.20
2023-03-06T18:49:09.289Z,31.60
2023-03-06T18:51:37.985Z,30.40
2023-03-06T18:54:07.641Z,36.60
2023-03-06T18:56:35.328Z,35.10
2023-03-06T18:59:06.991Z,38.80
2023-03-06T19:02:17.237Z,42.10
2023-03-06T19:04:46.786Z,41.10
2023-03-06T19:07:15.015Z,34.50
2023-03-06T19:09:45.353Z,37.80
2023-03-06T19:12:18.470Z,40.20
2023-03-06T19:14:47.295Z,42.00
2023-03-06T19:17:14.587Z,41.40
2023-03-06T19:19:41.970Z,39.40
2023-03-06T19:22:12.633Z,47.40
2023-03-06T19:24:39.947Z,41.00
2023-03-06T19:27:07.892Z,39.20
2023-03-06T19:29:34.962Z,42.50
2023-03-06T19:32:02.499Z,44.00
2023-03-06T19:34:30.039Z,43.80
2023-03-06T19:36:58.194Z,44.80
2023-03-06T19:39:28.140Z,43.40
2023-03-06T19:41:56.773Z,41.40
2023-03-06T19:44:24.594Z,43.20
2023-03-06T19:46:54.028Z,47.30
2023-03-06T19:49:25.198Z,44.30
2023-03-06T19:51:52.699Z,43.90
2023-03-06T19:54:26.036Z,51.20
2023-03-06T19:56:57.650Z,52.90
2023-03-06T19:59:27.372Z,51.90
2023-03-06T20:01:54.465Z,47.80
2023-03-06T20:04:22.271Z,51.00
2023-03-06T20:06:56.679Z,47.40
2023-03-06T20:09:25.180Z,51.90
2023-03-06T20:11:52.574Z,54.60
2023-03-06T20:14:19.868Z,47.20
2023-03-06T20:16:47.286Z,54.30
2023-03-06T20:19:14.439Z,48.50
2023-03-06T20:21:41.599Z,49.20
2023-03-06T20:24:11.971Z,47.30
2023-03-06T20:26:39.413Z,51.70
2023-03-06T20:29:10.731Z,55.70
2023-03-06T20:31:39.279Z,58.70
2023-03-06T20:34:06.496Z,54.60
2023-03-06T20:36:37.333Z,67.00
2023-03-06T20:39:09.322Z,57.30
2023-03-06T20:41:36.677Z,66.20
2023-03-06T20:44:06.690Z,53.80
2023-03-06T20:47:25.665Z,56.50
2023-03-06T20:50:52.412Z,60.90
2023-03-06T20:54:25.957Z,60.30
2023-03-06T20:58:12.781Z,61.00
2023-03-06T21:01:47.094Z,63.60
2023-03-06T21:04:59.285Z,63.10
2023-03-06T21:08:47.011Z,57.70
2023-03-06T21:12:34.341Z,51.80
2023-03-06T21:16:23.774Z,45.90
2023-03-06T21:19:53.172Z,39.40
2023-03-06T21:23:41.408Z,47.90
2023-03-06T21:27:12.697Z,49.90
2023-03-06T21:30:21.891Z,43.10
2023-03-06T21:33:50.940Z,43.10
2023-03-06T21:37:38.090Z,45.70
2023-03-06T21:41:27.951Z,44.80
2023-03-06T21:45:15.321Z,39.80
2023-03-06T21:48:12.147Z,49.90
2023-03-06T21:51:37.122Z,44.70
2023-03-06T21:55:05.858Z,42.70
2023-03-06T21:58:39.520Z,42.60
2023-03-06T22:02:22.535Z,43.30
2023-03-06T22:05:31.267Z,46.40
2023-03-06T22:08:43.203Z,47.30
2023-03-06T22:12:00.106Z,49.80
2023-03-06T22:15:26.591Z,47.40
2023-03-06T22:17:56.336Z,52.70
2023-03-06T22:21:04.263Z,50.80
2023-03-06T22:23:39.300Z,45.80
2023-03-06T22:26:33.544Z,53.70
2023-03-06T22:29:41.503Z,55.40
2023-03-06T22:33:28.691Z,56.00
2023-03-06T22:37:16.031Z,55.50
2023-03-06T22:40:43.053Z,55.80
2023-03-06T22:43:50.810Z,56.00
2023-03-06T22:46:45.224Z,59.20
2023-03-06T22:49:15.174Z,56.40
2023-03-06T22:52:22.443Z,53.20
2023-03-06T22:55:32.952Z,50.80
2023-03-06T22:58:49.541Z,59.80
2023-03-06T23:02:02.133Z,56.50
2023-03-06T23:05:02.207Z,61.60
2023-03-06T23:08:11.064Z,61.30
2023-03-06T23:10:39.904Z,62.10
2023-03-06T23:13:08.387Z,51.60
2023-03-06T23:15:48.193Z,60.30
2023-03-06T23:18:20.679Z,61.90
2023-03-06T23:20:57.913Z,55.40
2023-03-06T23:24:24.584Z,62.90
2023-03-06T23:27:34.433Z,58.10
2023-03-06T23:30:31.934Z,68.60
2023-03-06T23:33:43.243Z,64.80
2023-03-06T23:36:14.857Z,57.80
2023-03-06T23:38:44.457Z,60.60
2023-03-06T23:41:14.514Z,55.70
2023-03-06T23:44:45.049Z,57.30
2023-03-06T23:48:13.383Z,62.40
2023-03-06T23:51:01.527Z,66.20
2023-03-06T23:53:32.791Z,70.00
2023-03-06T23:56:04.340Z,71.90
2023-03-06T23:58:34.270Z,64.60
